Time;durP1;ratioP1;P1;durP2;ratioP2;P2;SDS_P1;SDS_P2;PMS_P1;PMS_P2;Temp;Humidity;BMP_temperature;BMP_pressure;BME280_temperature;BME280_humidity;BME280_pressure;Samples;Min_cycle;Max_cycle;Signal;HPM_P1;HPM_P2
2021/08/03 00:02:10;;;;;;;;;;;;;;;12.50;100.00;100643.06;5112858;28;19976;-71
2021/08/03 00:04:41;;;;;;;;;;;;;;;12.44;100.00;100643.63;5112746;28;19977;-72
2021/08/03 00:07:09;;;;;;;;;;;;;;;12.39;100.00;100644.03;5112631;28;19950;-72
2021/08/03 00:09:35;;;;;;;;;;;;;;;12.35;100.00;100645.31;5112330;28;19962;-72
2021/08/03 00:12:02;;;;;;;;;;;;;;;12.30;100.00;100645.72;5112852;28;19937;-72
2021/08/03 00:14:28;;;;;;;;;;;;;;;12.25;100.00;100645.28;5112497;28;20022;-71
2021/08/03 00:16:56;;;;;;;;;;;;;;;12.17;100.00;100636.94;5112161;28;20280;-71
2021/08/03 00:19:24;;;;;;;;;;;;;;;12.09;100.00;100640.34;5112903;28;20432;-72
2021/08/03 00:21:51;;;;;;;;;;;;;;;12.04;100.00;100643.47;5114046;28;20018;-72
2021/08/03 00:24:22;;;;;;;;;;;;;;;11.96;100.00;100650.59;5112735;28;19928;-72
2021/08/03 00:26:48;;;;;;;;;;;;;;;11.90;100.00;100649.25;5111998;28;19923;-72
2021/08/03 00:29:15;;;;;;;;;;;;;;;11.83;100.00;100646.19;5112258;28;20391;-72
2021/08/03 00:31:41;;;;;;;;;;;;;;;11.79;100.00;100647.47;5112350;28;19934;-72
2021/08/03 00:34:08;;;;;;;;;;;;;;;11.72;100.00;100643.56;5112308;28;20337;-72
2021/08/03 00:36:34;;;;;;;;;;;;;;;11.67;100.00;100645.84;5111216;28;19984;-72
2021/08/03 00:39:08;;;;;;;;;;;;;;;11.60;100.00;100647.34;5112504;28;19930;-73
2021/08/03 00:41:38;;;;;;;;;;;;;;;11.53;100.00;100647.00;5112681;28;19939;-72
2021/08/03 00:44:05;;;;;;;;;;;;;;;11.44;100.00;100639.66;5112395;28;19923;-67
2021/08/03 00:46:31;;;;;;;;;;;;;;;11.38;100.00;100644.66;5112599;28;20370;-67
2021/08/03 00:48:57;;;;;;;;;;;;;;;11.32;100.00;100644.31;5112008;28;19924;-67
2021/08/03 00:51:24;;;;;;;;;;;;;;;11.22;100.00;100638.78;5112159;28;20337;-72
2021/08/03 00:53:53;;;;;;;;;;;;;;;11.13;100.00;100645.88;5111109;28;19928;-67
2021/08/03 00:56:22;;;;;;;;;;;;;;;11.07;100.00;100643.69;5116991;28;19924;-67
2021/08/03 00:58:48;;;;;;;;;;;;;;;11.02;100.00;100652.22;5118848;27;19931;-67
2021/08/03 01:01:15;;;;;;;;;;;;;;;11.03;100.00;100658.50;5118891;27;19924;-67
2021/08/03 01:03:42;;;;;;;;;;;;;;;11.02;100.00;100654.94;5117671;28;20453;-67
2021/08/03 01:06:12;;;;;;;;;;;;;;;11.05;100.00;100667.41;5117697;28;20367;-66
2021/08/03 01:08:44;;;;;;;;;;;;;;;11.05;100.00;100665.53;5118601;28;19932;-67
2021/08/03 01:11:15;;;;;;;;;;;;;;;11.09;100.00;100668.88;5117738;28;19924;-66
2021/08/03 01:13:51;;;;;;;;;;;;;;;11.14;100.00;100672.03;5117500;28;19923;-67
2021/08/03 01:16:20;;;;;;;;;;;;;;;11.16;100.00;100659.19;5118516;28;20289;-67
2021/08/03 01:18:52;;;;;;;;;;;;;;;11.18;100.00;100667.22;5118558;27;19966;-67
2021/08/03 01:21:29;;;;;;;;;;;;;;;11.21;100.00;100664.22;5117598;28;20432;-66
2021/08/03 01:24:02;;;;;;;;;;;;;;;11.16;100.00;100656.47;5117308;28;20002;-66
2021/08/03 01:26:40;;;;;;;;;;;;;;;11.21;100.00;100667.81;5118788;27;19924;-67
2021/08/03 01:29:09;;;;;;;;;;;;;;;11.20;100.00;100671.53;5118593;27;20387;-67
2021/08/03 01:31:38;;;;;;;;;;;;;;;11.16;100.00;100667.34;5117382;28;20375;-66
2021/08/03 01:34:06;;;;;;;;;;;;;;;11.13;100.00;100675.75;5118691;27;20019;-67
2021/08/03 01:36:35;;;;;;;;;;;;;;;11.11;100.00;100675.03;5117182;28;20383;-67
2021/08/03 01:39:03;;;;;;;;;;;;;;;11.11;100.00;100683.16;5117223;28;19928;-67
2021/08/03 01:41:31;;;;;;;;;;;;;;;11.09;100.00;100679.75;5116973;28;19931;-67
2021/08/03 01:43:59;;;;;;;;;;;;;;;11.08;100.00;100682.56;5117271;28;20014;-67
2021/08/03 01:46:28;;;;;;;;;;;;;;;11.04;100.00;100679.25;5117358;28;19923;-67
2021/08/03 01:49:17;;;;;;;;;;;;;;;10.99;100.00;100674.19;5116122;28;19924;-67
2021/08/03 01:51:45;;;;;;;;;;;;;;;10.98;100.00;100677.03;5116086;28;19923;-66
2021/08/03 01:54:13;;;;;;;;;;;;;;;10.98;100.00;100675.22;5098833;28;20379;-72
2021/08/03 01:56:40;;;;;;;;;;;;;;;10.95;100.00;100669.16;5115739;28;19961;-72
2021/08/03 01:59:08;;;;;;;;;;;;;;;10.92;100.00;100683.00;5115522;28;19931;-71
2021/08/03 02:01:38;;;;;;;;;;;;;;;10.95;100.00;100677.31;5116059;28;19971;-71
2021/08/03 02:04:05;;;;;;;;;;;;;;;10.89;100.00;100687.69;5098832;28;20050;-66
2021/08/03 02:06:34;;;;;;;;;;;;;;;10.88;100.00;100698.69;5097626;28;19930;-67
2021/08/03 02:09:02;;;;;;;;;;;;;;;10.83;100.00;100696.34;5095483;28;19934;-67
2021/08/03 02:11:34;;;;;;;;;;;;;;;10.85;100.00;100691.66;5095778;28;19923;-66
2021/08/03 02:14:02;;;;;;;;;;;;;;;10.87;100.00;100691.53;5095294;28;19928;-68
2021/08/03 02:16:38;;;;;;;;;;;;;;;10.82;100.00;100682.88;5095104;28;19923;-67
2021/08/03 02:19:08;;;;;;;;;;;;;;;10.74;100.00;100694.38;5095402;28;20418;-67
2021/08/03 02:21:49;;;;;;;;;;;;;;;10.71;100.00;100689.22;5113539;28;19923;-66
2021/08/03 02:24:19;;;;;;;;;;;;;;;10.62;100.00;100695.41;5113710;28;19924;-66
2021/08/03 02:26:47;;;;;;;;;;;;;;;10.54;100.00;100693.31;5112896;28;19934;-67
2021/08/03 02:29:13;;;;;;;;;;;;;;;10.46;100.00;100690.34;5113598;28;19947;-71
2021/08/03 02:31:44;;;;;;;;;;;;;;;10.43;100.00;100699.59;5114732;28;19931;-67
2021/08/03 02:34:15;;;;;;;;;;;;;;;10.39;100.00;100698.13;5096055;28;20402;-67
2021/08/03 02:36:43;;;;;;;;;;;;;;;10.33;100.00;100690.47;5113099;28;20150;-71
2021/08/03 02:39:11;;;;;;;;;;;;;;;10.27;100.00;100683.66;5112847;28;19946;-67
2021/08/03 02:41:37;;;;;;;;;;;;;;;10.25;100.00;100695.63;5113338;28;19924;-67
2021/08/03 02:44:06;;;;;;;;;;;;;;;10.18;100.00;100698.84;5113053;28;19928;-67
2021/08/03 02:46:32;;;;;;;;;;;;;;;10.19;100.00;100705.97;5114556;28;19966;-66
2021/08/03 02:49:03;;;;;;;;;;;;;;;10.15;100.00;100700.94;5113701;28;19977;-72
2021/08/03 02:51:30;;;;;;;;;;;;;;;10.16;100.00;100714.38;5113946;28;19969;-71
2021/08/03 02:53:59;;;;;;;;;;;;;;;10.16;100.00;100708.09;5114058;28;19923;-72
2021/08/03 02:56:27;;;;;;;;;;;;;;;10.14;100.00;100700.09;5114154;28;19928;-71
2021/08/03 02:58:57;;;;;;;;;;;;;;;10.10;100.00;100704.03;5114125;28;19924;-66
2021/08/03 03:01:27;;;;;;;;;;;;;;;10.05;100.00;100712.53;5113925;28;20347;-66
2021/08/03 03:03:58;;;;;;;;;;;;;;;10.03;100.00;100703.66;5113980;28;19923;-71
2021/08/03 03:06:32;;;;;;;;;;;;;;;10.02;100.00;100701.94;5113792;28;19969;-67
2021/08/03 03:08:59;;;;;;;;;;;;;;;10.05;100.00;100700.81;5112302;28;20022;-67
2021/08/03 03:11:27;;;;;;;;;;;;;;;10.05;100.00;100698.97;5112850;28;20145;-67
2021/08/03 03:13:56;;;;;;;;;;;;;;;10.04;100.00;100708.06;5112435;28;19923;-66
2021/08/03 03:16:25;;;;;;;;;;;;;;;10.01;100.00;100699.34;5113728;28;19980;-67
2021/08/03 03:18:55;;;;;;;;;;;;;;;10.01;100.00;100710.19;5112254;28;19924;-67
2021/08/03 03:21:23;;;;;;;;;;;;;;;9.98;100.00;100708.59;5111044;28;19924;-67
2021/08/03 03:23:53;;;;;;;;;;;;;;;9.96;100.00;100709.69;5103148;28;19923;-71
2021/08/03 03:26:24;;;;;;;;;;;;;;;9.89;100.00;100715.56;5099891;28;19924;-72
2021/08/03 03:28:51;;;;;;;;;;;;;;;9.81;100.00;100715.31;5106501;28;19923;-72
2021/08/03 03:31:18;;;;;;;;;;;;;;;9.79;100.00;100719.13;5113169;28;19927;-72
2021/08/03 03:33:46;;;;;;;;;;;;;;;9.77;100.00;100713.84;5108733;28;19928;-71
2021/08/03 03:36:13;;;;;;;;;;;;;;;9.76;100.00;100716.69;5091601;28;20282;-71
2021/08/03 03:38:42;;;;;;;;;;;;;;;9.75;100.00;100715.78;5111610;28;19931;-71
2021/08/03 03:41:10;;;;;;;;;;;;;;;9.72;100.00;100722.31;5108495;28;19924;-71
2021/08/03 03:43:37;;;;;;;;;;;;;;;9.74;100.00;100718.63;5104550;28;19931;-67
2021/08/03 03:46:04;;;;;;;;;;;;;;;9.78;100.00;100721.00;5091519;28;19972;-72
2021/08/03 03:48:33;;;;;;;;;;;;;;;9.83;100.00;100715.19;5096660;28;19924;-67
2021/08/03 03:51:00;;;;;;;;;;;;;;;9.88;100.00;100721.97;5112030;28;19959;-67
2021/08/03 03:53:34;;;;;;;;;;;;;;;9.98;100.00;100719.44;5103441;28;19928;-70
2021/08/03 03:56:02;;;;;;;;;;;;;;;10.15;100.00;100733.50;5101634;28;20306;-71
2021/08/03 03:58:34;;;;;;;;;;;;;;;10.31;100.00;100733.97;5091123;28;19994;-71
2021/08/03 04:01:00;;;;;;;;;;;;;;;10.47;100.00;100732.78;5110898;28;19928;-71
2021/08/03 04:03:29;;;;;;;;;;;;;;;10.59;100.00;100730.94;5112880;28;20302;-66
2021/08/03 04:05:55;;;;;;;;;;;;;;;10.70;100.00;100730.91;5090251;28;20344;-66
2021/08/03 04:08:24;;;;;;;;;;;;;;;10.81;100.00;100721.88;5091409;28;20368;-67
2021/08/03 04:10:50;;;;;;;;;;;;;;;10.91;100.00;100716.59;5092156;28;20396;-67
2021/08/03 04:13:17;;;;;;;;;;;;;;;10.99;100.00;100719.50;5110061;28;19924;-71
2021/08/03 04:15:45;;;;;;;;;;;;;;;11.07;100.00;100721.59;5101357;28;19924;-71
2021/08/03 04:18:12;;;;;;;;;;;;;;;11.16;100.00;100728.97;5098794;28;20329;-67
2021/08/03 04:20:40;;;;;;;;;;;;;;;11.27;100.00;100720.78;5110395;28;19928;-67
2021/08/03 04:23:07;;;;;;;;;;;;;;;11.37;100.00;100720.84;5103398;28;19980;-68
2021/08/03 04:25:34;;;;;;;;;;;;;;;11.48;100.00;100718.09;5103331;28;20417;-70
2021/08/03 04:28:00;;;;;;;;;;;;;;;11.57;100.00;100724.59;5091657;28;19932;-70
2021/08/03 04:30:27;;;;;;;;;;;;;;;11.70;100.00;100724.41;5091471;28;19924;-67
2021/08/03 04:32:54;;;;;;;;;;;;;;;11.79;100.00;100720.91;5092005;28;19947;-66
2021/08/03 04:35:20;;;;;;;;;;;;;;;11.89;100.00;100716.41;5091330;28;20396;-71
2021/08/03 04:37:48;;;;;;;;;;;;;;;12.03;100.00;100727.97;5091922;28;19941;-71
2021/08/03 04:40:15;;;;;;;;;;;;;;;12.13;100.00;100730.72;5091967;28;19959;-66
2021/08/03 04:42:41;;;;;;;;;;;;;;;12.23;100.00;100728.94;5091547;28;19952;-66
2021/08/03 04:45:08;;;;;;;;;;;;;;;12.30;100.00;100729.25;5091945;28;19928;-67
2021/08/03 04:47:40;;;;;;;;;;;;;;;12.38;100.00;100729.41;5091423;28;19977;-67
2021/08/03 04:50:09;;;;;;;;;;;;;;;12.46;100.00;100740.47;5091748;28;19969;-67
2021/08/03 04:52:35;;;;;;;;;;;;;;;12.54;100.00;100727.03;5091724;28;19928;-67
2021/08/03 04:55:01;;;;;;;;;;;;;;;12.64;100.00;100731.66;5090122;28;19985;-67
2021/08/03 04:57:27;;;;;;;;;;;;;;;12.76;100.00;100730.59;5091834;28;19928;-67
2021/08/03 04:59:54;;;;;;;;;;;;;;;12.86;100.00;100730.59;5097166;28;20005;-67
2021/08/03 05:02:20;;;;;;;;;;;;;;;12.94;100.00;100732.63;5102435;28;19959;-67
2021/08/03 05:04:46;;;;;;;;;;;;;;;13.07;100.00;100730.50;5096372;28;19954;-67
2021/08/03 05:07:14;;;;;;;;;;;;;;;13.19;100.00;100723.06;5098879;28;20061;-67
2021/08/03 05:09:40;;;;;;;;;;;;;;;13.33;100.00;100717.16;5090497;28;20350;-70
2021/08/03 05:12:07;;;;;;;;;;;;;;;13.39;100.00;100710.34;5090672;28;19928;-70
2021/08/03 05:14:33;;;;;;;;;;;;;;;13.48;100.00;100720.38;5090553;28;20398;-70
2021/08/03 05:17:00;;;;;;;;;;;;;;;13.56;100.00;100717.78;5090367;28;20119;-71
2021/08/03 05:19:26;;;;;;;;;;;;;;;13.65;100.00;100716.03;5091040;28;19947;-71
2021/08/03 05:21:52;;;;;;;;;;;;;;;13.71;100.00;100712.75;5097869;28;19931;-71
2021/08/03 05:24:25;;;;;;;;;;;;;;;13.75;100.00;100707.88;5090781;28;19986;-67
2021/08/03 05:26:51;;;;;;;;;;;;;;;13.84;100.00;100711.56;5090370;28;19927;-67
2021/08/03 05:29:18;;;;;;;;;;;;;;;13.87;100.00;100717.59;5091532;28;19955;-70
2021/08/03 05:31:44;;;;;;;;;;;;;;;14.02;100.00;100711.69;5100066;28;19924;-68
2021/08/03 05:34:10;;;;;;;;;;;;;;;14.23;100.00;100711.50;5100930;28;20653;-68
2021/08/03 05:36:37;;;;;;;;;;;;;;;14.32;100.00;100709.72;5101587;28;20378;-71
2021/08/03 05:39:03;;;;;;;;;;;;;;;14.37;100.00;100712.88;5098772;28;19928;-71
2021/08/03 05:41:31;;;;;;;;;;;;;;;14.46;100.00;100722.91;5100770;28;19977;-71
2021/08/03 05:43:57;;;;;;;;;;;;;;;14.45;100.00;100718.44;5106450;28;19935;-71
2021/08/03 05:46:23;;;;;;;;;;;;;;;14.61;100.00;100716.94;5115349;28;20023;-71
2021/08/03 05:48:49;;;;;;;;;;;;;;;14.75;100.00;100716.44;5114448;28;20329;-71
2021/08/03 05:51:16;;;;;;;;;;;;;;;14.78;100.00;100716.16;5113797;28;20019;-72
2021/08/03 05:53:42;;;;;;;;;;;;;;;14.81;100.00;100707.66;5115165;28;19959;-72
2021/08/03 05:56:08;;;;;;;;;;;;;;;14.85;100.00;100717.25;5114607;28;19928;-72
2021/08/03 05:58:36;;;;;;;;;;;;;;;14.94;100.00;100715.50;5115172;28;20374;-71
2021/08/03 06:01:02;;;;;;;;;;;;;;;14.86;100.00;100710.78;5115122;28;19955;-72
2021/08/03 06:03:28;;;;;;;;;;;;;;;14.83;100.00;100711.09;5113944;28;19969;-66
2021/08/03 06:05:54;;;;;;;;;;;;;;;14.84;100.00;100718.25;5113698;28;20027;-67
2021/08/03 06:08:23;;;;;;;;;;;;;;;14.92;100.00;100716.66;5113965;28;20040;-67
2021/08/03 06:10:51;;;;;;;;;;;;;;;15.01;100.00;100722.06;5114546;27;19928;-67
2021/08/03 06:13:18;;;;;;;;;;;;;;;15.07;100.00;100717.84;5113421;28;19969;-67
2021/08/03 06:15:49;;;;;;;;;;;;;;;15.07;100.00;100713.25;5114390;28;19924;-67
2021/08/03 06:18:22;;;;;;;;;;;;;;;15.18;100.00;100723.09;5113495;28;20446;-67
2021/08/03 06:20:48;;;;;;;;;;;;;;;15.25;100.00;100725.22;5114626;28;19967;-67
2021/08/03 06:23:16;;;;;;;;;;;;;;;15.29;100.00;100727.47;5114800;28;19924;-70
2021/08/03 06:25:43;;;;;;;;;;;;;;;15.51;100.00;100726.16;5114550;28;20403;-71
2021/08/03 06:28:10;;;;;;;;;;;;;;;16.19;100.00;100721.03;5114029;28;19924;-71
2021/08/03 06:30:37;;;;;;;;;;;;;;;16.39;100.00;100729.88;5114607;28;20345;-71
2021/08/03 06:33:05;;;;;;;;;;;;;;;16.22;100.00;100718.84;5114745;28;20579;-71
2021/08/03 06:35:32;;;;;;;;;;;;;;;16.04;100.00;100720.78;5114831;28;19970;-71
2021/08/03 06:37:58;;;;;;;;;;;;;;;16.25;100.00;100728.63;5113882;28;20438;-71
2021/08/03 06:40:25;;;;;;;;;;;;;;;16.35;100.00;100725.75;5114723;28;20022;-71
2021/08/03 06:42:59;;;;;;;;;;;;;;;16.62;100.00;100726.56;5114303;28;19923;-71
2021/08/03 06:45:26;;;;;;;;;;;;;;;17.03;100.00;100727.63;5114156;28;19924;-71
2021/08/03 06:48:00;;;;;;;;;;;;;;;17.30;100.00;100730.25;5114137;28;19924;-67
2021/08/03 06:50:30;;;;;;;;;;;;;;;17.15;100.00;100730.91;5114360;28;19924;-66
2021/08/03 06:52:56;;;;;;;;;;;;;;;17.07;100.00;100733.63;5111803;28;19970;-67
2021/08/03 06:55:27;;;;;;;;;;;;;;;17.07;100.00;100733.63;5112780;28;19970;-67
2021/08/03 06:57:54;;;;;;;;;;;;;;;16.78;100.00;100731.28;5113843;28;20451;-67
2021/08/03 07:00:23;;;;;;;;;;;;;;;16.65;100.00;100732.59;5113942;28;19959;-66
2021/08/03 07:02:49;;;;;;;;;;;;;;;16.64;100.00;100727.28;5113867;28;20001;-67
2021/08/03 07:05:17;;;;;;;;;;;;;;;16.67;100.00;100737.91;5113737;28;20022;-66
2021/08/03 07:07:45;;;;;;;;;;;;;;;16.94;100.00;100738.72;5113638;28;19968;-66
2021/08/03 07:10:13;;;;;;;;;;;;;;;17.04;100.00;100739.47;5113869;28;19974;-66
2021/08/03 07:12:42;;;;;;;;;;;;;;;17.16;100.00;100735.38;5113743;28;20394;-67
2021/08/03 07:15:09;;;;;;;;;;;;;;;17.13;100.00;100738.47;5113914;28;19993;-71
2021/08/03 07:17:36;;;;;;;;;;;;;;;17.01;100.00;100737.91;5113267;28;20448;-71
2021/08/03 07:20:03;;;;;;;;;;;;;;;17.14;100.00;100739.31;5113717;28;19924;-71
2021/08/03 07:22:31;;;;;;;;;;;;;;;17.32;100.00;100742.78;5113818;28;19966;-71
2021/08/03 07:25:01;;;;;;;;;;;;;;;17.61;100.00;100735.97;5113450;28;19992;-71
2021/08/03 07:27:27;;;;;;;;;;;;;;;17.94;100.00;100735.13;5113350;28;19924;-71
2021/08/03 07:29:53;;;;;;;;;;;;;;;18.16;100.00;100739.03;5113547;28;19955;-71
2021/08/03 07:32:19;;;;;;;;;;;;;;;18.49;100.00;100728.84;5113493;28;19935;-71
2021/08/03 07:34:46;;;;;;;;;;;;;;;18.77;100.00;100728.38;5113210;28;19923;-71
2021/08/03 07:37:12;;;;;;;;;;;;;;;18.86;100.00;100727.31;5113032;28;20366;-71
2021/08/03 07:39:39;;;;;;;;;;;;;;;18.43;100.00;100736.94;5113044;28;20371;-66
2021/08/03 07:42:07;;;;;;;;;;;;;;;18.37;100.00;100730.25;5111943;28;20345;-67
2021/08/03 07:44:34;;;;;;;;;;;;;;;18.47;100.00;100733.66;5113202;28;19963;-66
2021/08/03 07:47:00;;;;;;;;;;;;;;;18.60;100.00;100729.47;5111314;28;20314;-71
2021/08/03 07:49:27;;;;;;;;;;;;;;;18.73;100.00;100727.03;5113212;28;19967;-71
2021/08/03 07:51:53;;;;;;;;;;;;;;;18.82;100.00;100728.69;5112770;28;19974;-71
2021/08/03 07:54:20;;;;;;;;;;;;;;;18.90;100.00;100725.94;5112673;28;20456;-66
2021/08/03 07:56:46;;;;;;;;;;;;;;;18.99;100.00;100729.53;5112425;28;19934;-66
2021/08/03 07:59:14;;;;;;;;;;;;;;;19.31;100.00;100733.13;5112885;28;19996;-66
2021/08/03 08:01:40;;;;;;;;;;;;;;;19.58;100.00;100733.63;5112972;28;19978;-66
2021/08/03 08:04:06;;;;;;;;;;;;;;;19.24;100.00;100729.38;5112131;28;19977;-66
2021/08/03 08:06:32;;;;;;;;;;;;;;;19.21;100.00;100730.63;5112115;28;19973;-66
2021/08/03 08:08:59;;;;;;;;;;;;;;;19.16;100.00;100732.16;5112357;28;19967;-66
2021/08/03 08:11:25;;;;;;;;;;;;;;;19.17;100.00;100736.66;5112731;28;20359;-66
2021/08/03 08:13:51;;;;;;;;;;;;;;;19.38;100.00;100725.84;5112014;28;19924;-66
2021/08/03 08:16:19;;;;;;;;;;;;;;;19.52;100.00;100732.47;5112554;28;20324;-67
2021/08/03 08:18:45;;;;;;;;;;;;;;;19.13;100.00;100729.78;5112235;28;19955;-66
2021/08/03 08:21:11;;;;;;;;;;;;;;;19.36;100.00;100719.69;5112350;28;19954;-66
2021/08/03 08:23:38;;;;;;;;;;;;;;;19.44;100.00;100720.63;5112794;28;20011;-71
2021/08/03 08:26:04;;;;;;;;;;;;;;;19.43;100.00;100725.31;5112288;28;19989;-72
2021/08/03 08:28:30;;;;;;;;;;;;;;;19.34;100.00;100720.91;5112191;28;20010;-72
2021/08/03 08:30:57;;;;;;;;;;;;;;;19.16;100.00;100723.91;5112102;28;19951;-71
2021/08/03 08:33:25;;;;;;;;;;;;;;;19.81;100.00;100728.13;5112510;28;20031;-71
2021/08/03 08:35:51;;;;;;;;;;;;;;;20.38;100.00;100718.44;5112292;28;19977;-71
2021/08/03 08:38:18;;;;;;;;;;;;;;;20.83;100.00;100721.22;5110826;28;19931;-67
2021/08/03 08:40:45;;;;;;;;;;;;;;;21.00;100.00;100720.97;5112300;28;19959;-66
2021/08/03 08:43:12;;;;;;;;;;;;;;;20.60;100.00;100720.44;5112013;28;20379;-67
2021/08/03 08:45:38;;;;;;;;;;;;;;;20.53;100.00;100720.34;5112239;28;19924;-66
2021/08/03 08:48:06;;;;;;;;;;;;;;;20.33;100.00;100717.28;5111702;28;19988;-66
2021/08/03 08:50:34;;;;;;;;;;;;;;;20.15;100.00;100724.03;5111878;28;19930;-66
2021/08/03 08:53:00;;;;;;;;;;;;;;;20.03;100.00;100720.88;5112081;28;19966;-66
2021/08/03 08:55:26;;;;;;;;;;;;;;;19.86;100.00;100722.91;5111864;28;20038;-66
2021/08/03 08:57:53;;;;;;;;;;;;;;;19.64;100.00;100727.38;5111620;28;19936;-66
2021/08/03 09:00:20;;;;;;;;;;;;;;;19.52;100.00;100728.84;5112243;28;20022;-67
2021/08/03 09:02:47;;;;;;;;;;;;;;;19.88;100.00;100729.09;5112157;28;20022;-66
2021/08/03 09:05:14;;;;;;;;;;;;;;;19.93;100.00;100720.25;5111883;28;19928;-66
2021/08/03 09:07:48;;;;;;;;;;;;;;;20.81;100.00;100717.78;5111558;28;19959;-66
2021/08/03 09:10:26;;;;;;;;;;;;;;;21.06;100.00;100714.69;5112145;28;20018;-67
2021/08/03 09:12:58;;;;;;;;;;;;;;;21.30;100.00;100720.88;5111811;28;20314;-66
2021/08/03 09:15:24;;;;;;;;;;;;;;;21.36;100.00;100720.97;5111902;28;20002;-67
2021/08/03 09:17:50;;;;;;;;;;;;;;;20.95;100.00;100724.34;5115160;28;19927;-67
2021/08/03 09:20:17;;;;;;;;;;;;;;;21.41;100.00;100728.66;5116165;28;19954;-66
2021/08/03 09:22:48;;;;;;;;;;;;;;;22.24;100.00;100725.38;5115878;28;19994;-68
2021/08/03 09:25:16;;;;;;;;;;;;;;;22.83;100.00;100718.50;5115852;28;19990;-67
2021/08/03 09:27:44;;;;;;;;;;;;;;;24.06;100.00;100712.00;5115694;28;19924;-67
2021/08/03 09:30:26;;;;;;;;;;;;;;;25.04;89.70;100709.41;5115662;28;19931;-67
2021/08/03 09:32:53;;;;;;;;;;;;;;;25.74;80.33;100701.06;5115563;28;19924;-67
2021/08/03 09:35:20;;;;;;;;;;;;;;;25.44;79.58;100708.34;5115690;28;19963;-67
2021/08/03 09:37:46;;;;;;;;;;;;;;;25.99;82.29;100704.94;5115994;28;19927;-67
2021/08/03 09:40:20;;;;;;;;;;;;;;;25.58;74.92;100706.34;5115722;28;19923;-67
2021/08/03 09:42:56;;;;;;;;;;;;;;;25.01;88.20;100699.63;5115675;28;19970;-67
2021/08/03 09:45:23;;;;;;;;;;;;;;;25.05;75.37;100694.44;5115499;28;19976;-67
2021/08/03 09:47:49;;;;;;;;;;;;;;;24.42;79.52;100697.88;5114979;28;20375;-67
2021/08/03 09:50:18;;;;;;;;;;;;;;;24.64;82.35;100699.34;5115545;28;19959;-67
2021/08/03 09:52:47;;;;;;;;;;;;;;;25.45;78.59;100696.19;5115291;28;19927;-67
2021/08/03 09:55:14;;;;;;;;;;;;;;;25.58;80.45;100703.59;5115443;28;19924;-67
2021/08/03 09:57:42;;;;;;;;;;;;;;;25.10;78.82;100693.81;5114875;28;20399;-67
2021/08/03 10:00:24;;;;;;;;;;;;;;;24.97;79.66;100690.00;5115177;28;19982;-67
2021/08/03 10:02:51;;;;;;;;;;;;;;;25.38;81.19;100693.44;5114388;28;19927;-67
2021/08/03 10:05:17;;;;;;;;;;;;;;;24.38;82.58;100692.72;5115035;28;20011;-66
2021/08/03 10:07:43;;;;;;;;;;;;;;;24.79;86.53;100681.56;5115109;28;19965;-67
2021/08/03 10:10:10;;;;;;;;;;;;;;;24.52;78.66;100685.25;5114958;28;20371;-67
2021/08/03 10:12:36;;;;;;;;;;;;;;;24.36;79.16;100686.56;5115000;28;19971;-66
2021/08/03 10:15:04;;;;;;;;;;;;;;;24.37;76.64;100681.88;5114579;28;19924;-73
2021/08/03 10:17:31;;;;;;;;;;;;;;;24.65;67.80;100684.41;5114310;28;19928;-66
2021/08/03 10:19:58;;;;;;;;;;;;;;;24.81;69.17;100683.03;5114940;27;19962;-72
2021/08/03 10:22:27;;;;;;;;;;;;;;;24.57;73.73;100688.22;5113637;28;19924;-73
2021/08/03 10:24:56;;;;;;;;;;;;;;;24.57;69.71;100681.81;5114778;28;19973;-73
2021/08/03 10:27:22;;;;;;;;;;;;;;;24.79;77.91;100692.66;5114113;28;19966;-72
2021/08/03 10:29:49;;;;;;;;;;;;;;;24.98;75.01;100683.38;5114367;28;19966;-72
2021/08/03 10:32:34;;;;;;;;;;;;;;;25.28;70.98;100677.25;5114308;27;19927;-72
2021/08/03 10:35:02;;;;;;;;;;;;;;;25.79;66.21;100677.31;5114320;28;19955;-72
2021/08/03 10:37:43;;;;;;;;;;;;;;;25.66;63.20;100675.50;5114111;28;19931;-71
2021/08/03 10:40:09;;;;;;;;;;;;;;;25.15;60.06;100675.38;5114322;28;19959;-72
2021/08/03 10:42:35;;;;;;;;;;;;;;;25.61;63.61;100675.34;5114707;28;20022;-72
2021/08/03 10:45:16;;;;;;;;;;;;;;;24.99;55.40;100676.75;5114109;28;20371;-73
2021/08/03 10:47:43;;;;;;;;;;;;;;;25.22;57.05;100673.41;5114062;28;19928;-71
2021/08/03 10:50:12;;;;;;;;;;;;;;;25.49;54.95;100667.69;5113830;28;19924;-71
2021/08/03 10:52:54;;;;;;;;;;;;;;;25.88;55.61;100673.16;5114193;28;19924;-71
2021/08/03 10:55:37;;;;;;;;;;;;;;;25.84;53.21;100669.13;5114102;27;19931;-71
2021/08/03 10:58:23;;;;;;;;;;;;;;;26.32;51.93;100664.84;5113901;28;19930;-71
2021/08/03 11:00:51;;;;;;;;;;;;;;;26.68;50.64;100658.41;5113902;28;19977;-70
2021/08/03 11:03:36;;;;;;;;;;;;;;;26.12;51.56;100663.13;5114018;27;19931;-70
2021/08/03 11:06:31;;;;;;;;;;;;;;;26.15;54.15;100656.25;5113907;28;19924;-70
2021/08/03 11:08:57;;;;;;;;;;;;;;;26.14;56.14;100660.97;5113786;28;19959;-70
2021/08/03 11:11:24;;;;;;;;;;;;;;;26.04;56.18;100663.41;5114239;28;19930;-71
2021/08/03 11:13:51;;;;;;;;;;;;;;;25.68;56.39;100663.09;5113801;28;20572;-71
2021/08/03 11:16:36;;;;;;;;;;;;;;;25.17;57.55;100667.66;5113725;28;19924;-71
2021/08/03 11:19:04;;;;;;;;;;;;;;;24.97;65.78;100665.00;5113320;28;19967;-66
2021/08/03 11:21:32;;;;;;;;;;;;;;;25.40;61.88;100649.59;5112554;28;20073;-70
2021/08/03 11:23:59;;;;;;;;;;;;;;;25.22;62.21;100655.91;5113727;28;19969;-71
2021/08/03 11:26:26;;;;;;;;;;;;;;;25.29;67.05;100651.16;5113551;28;19930;-71
2021/08/03 11:28:56;;;;;;;;;;;;;;;25.16;64.89;100651.25;5113654;28;20018;-71
2021/08/03 11:31:23;;;;;;;;;;;;;;;25.56;72.07;100649.06;5114662;28;19924;-71
2021/08/03 11:33:54;;;;;;;;;;;;;;;25.39;64.60;100651.53;5113446;28;20019;-71
2021/08/03 11:36:21;;;;;;;;;;;;;;;24.49;68.80;100646.84;5113459;28;19950;-70
2021/08/03 11:38:48;;;;;;;;;;;;;;;24.60;67.79;100647.22;5113221;28;20302;-71
2021/08/03 11:41:15;;;;;;;;;;;;;;;25.00;66.82;100645.16;5112201;28;19927;-71
2021/08/03 11:43:41;;;;;;;;;;;;;;;25.63;62.58;100637.91;5113433;27;19993;-70
2021/08/03 11:46:07;;;;;;;;;;;;;;;25.52;61.79;100641.41;5113023;28;19963;-71
2021/08/03 11:48:33;;;;;;;;;;;;;;;26.33;59.57;100633.19;5111554;28;20359;-71
2021/08/03 11:51:01;;;;;;;;;;;;;;;26.67;53.82;100634.47;5113107;27;19924;-71
2021/08/03 11:53:29;;;;;;;;;;;;;;;26.33;57.51;100624.84;5112680;28;19931;-71
2021/08/03 11:55:58;;;;;;;;;;;;;;;26.93;57.45;100626.03;5111816;28;20375;-70
2021/08/03 11:58:25;;;;;;;;;;;;;;;26.80;55.98;100615.91;5112698;28;19923;-71
2021/08/03 12:00:52;;;;;;;;;;;;;;;26.45;56.31;100625.75;5112835;28;19966;-70
2021/08/03 12:03:27;;;;;;;;;;;;;;;26.28;53.49;100613.53;5112897;28;19923;-71
2021/08/03 12:05:53;;;;;;;;;;;;;;;26.87;57.70;100606.41;5112260;28;19959;-71
2021/08/03 12:08:20;;;;;;;;;;;;;;;27.02;53.71;100597.59;5111511;28;19928;-71
2021/08/03 12:10:50;;;;;;;;;;;;;;;27.13;50.48;100609.03;5112900;28;20076;-70
2021/08/03 12:13:27;;;;;;;;;;;;;;;27.01;47.77;100603.41;5112624;28;19947;-70
2021/08/03 12:15:55;;;;;;;;;;;;;;;26.78;50.26;100591.09;5112337;28;19924;-71
2021/08/03 12:18:21;;;;;;;;;;;;;;;27.40;48.24;100596.38;5112454;28;19956;-71
2021/08/03 12:20:54;;;;;;;;;;;;;;;28.28;47.88;100606.00;5112443;28;19988;-71
2021/08/03 12:23:22;;;;;;;;;;;;;;;28.37;47.23;100608.16;5112415;28;19928;-70
2021/08/03 12:25:50;;;;;;;;;;;;;;;27.85;45.39;100594.97;5112687;28;19924;-70
2021/08/03 12:28:37;;;;;;;;;;;;;;;27.86;47.70;100596.66;5112227;28;19943;-70
2021/08/03 12:31:33;;;;;;;;;;;;;;;27.79;47.08;100595.09;5112462;28;19931;-70
2021/08/03 12:34:11;;;;;;;;;;;;;;;27.37;44.80;100599.66;5032634;28;19925;-72
2021/08/03 12:36:41;;;;;;;;;;;;;;;28.10;44.55;100579.09;5102188;28;19946;-72
2021/08/03 12:39:08;;;;;;;;;;;;;;;28.11;45.38;100580.78;5111963;28;20006;-72